createdAt,value
2019-04-07T00:00:12.301Z,38.80
2019-04-07T00:02:38.612Z,38.70
2019-04-07T00:05:12.525Z,40.47
2019-04-07T00:07:34.526Z,38.70
2019-04-07T00:10:01.742Z,41.63
2019-04-07T00:12:29.272Z,43.67
2019-04-07T00:14:56.244Z,43.37
2019-04-07T00:17:23.032Z,43.73
2019-04-07T00:19:50.316Z,45.60
2019-04-07T00:22:17.112Z,46.40
2019-04-07T00:24:44.054Z,44.00
2019-04-07T00:27:10.529Z,47.90
2019-04-07T00:29:36.928Z,46.37
2019-04-07T00:32:04.740Z,49.73
2019-04-07T00:34:31.158Z,46.67
2019-04-07T00:36:57.445Z,48.47
2019-04-07T00:39:23.886Z,46.50
2019-04-07T00:41:50.681Z,45.73
2019-04-07T00:44:17.406Z,42.70
2019-04-07T00:46:44.413Z,43.27
2019-04-07T00:49:11.608Z,41.80
2019-04-07T00:51:38.454Z,41.80
2019-04-07T00:54:05.071Z,41.70
2019-04-07T00:56:31.579Z,41.20
2019-04-07T00:58:57.856Z,39.80
2019-04-07T01:01:24.569Z,39.63
2019-04-07T01:03:51.040Z,40.23
2019-04-07T01:06:17.571Z,40.70
2019-04-07T01:08:43.928Z,40.60
2019-04-07T01:11:10.374Z,40.57
2019-04-07T01:13:37.343Z,37.60
2019-04-07T01:16:03.959Z,40.53
2019-04-07T01:18:32.625Z,39.70
2019-04-07T01:20:59.514Z,38.07
2019-04-07T01:23:26.112Z,38.50
2019-04-07T01:25:52.590Z,38.60
2019-04-07T01:28:20.832Z,39.00
2019-04-07T01:30:47.832Z,40.80
2019-04-07T01:33:15.331Z,38.90
2019-04-07T01:35:47.912Z,38.20
2019-04-07T01:38:10.403Z,38.47
2019-04-07T01:40:36.863Z,38.40
2019-04-07T01:43:05.456Z,38.30
2019-04-07T01:45:34.347Z,37.27
2019-04-07T01:48:08.819Z,36.30
2019-04-07T01:50:52.747Z,39.23
2019-04-07T01:53:21.325Z,38.03
2019-04-07T01:56:06.522Z,39.40
2019-04-07T01:58:44.422Z,38.37
2019-04-07T02:01:29.812Z,38.83
2019-04-07T02:04:07.058Z,39.77
2019-04-07T02:06:52.083Z,37.60
2019-04-07T02:09:26.468Z,40.00
2019-04-07T02:11:55.118Z,39.00
2019-04-07T02:14:24.094Z,38.63
2019-04-07T02:16:52.674Z,38.80
2019-04-07T02:19:37.013Z,39.67
2019-04-07T02:22:14.651Z,37.20
2019-04-07T02:25:01.797Z,38.20
2019-04-07T02:27:36.085Z,37.27
2019-04-07T02:30:16.216Z,35.90
2019-04-07T02:32:44.543Z,38.93
2019-04-07T02:35:18.795Z,36.80
2019-04-07T02:38:04.836Z,36.50
2019-04-07T02:40:36.509Z,37.90
2019-04-07T02:43:05.236Z,36.07
2019-04-07T02:45:50.790Z,36.17
2019-04-07T02:48:22.155Z,36.83
2019-04-07T02:51:03.245Z,36.67
2019-04-07T02:53:37.982Z,37.27
2019-04-07T02:56:17.357Z,35.47
2019-04-07T02:58:49.705Z,37.37
2019-04-07T03:01:27.786Z,35.30
2019-04-07T03:04:05.198Z,35.43
2019-04-07T03:06:44.088Z,35.90
2019-04-07T03:09:26.014Z,36.77
2019-04-07T03:11:54.561Z,36.40
2019-04-07T03:14:22.771Z,39.60
2019-04-07T03:17:09.090Z,38.07
2019-04-07T03:19:43.521Z,37.07
2019-04-07T03:22:21.161Z,37.80
2019-04-07T03:24:49.749Z,36.97
2019-04-07T03:27:21.899Z,35.03
2019-04-07T03:29:50.417Z,36.17
2019-04-07T03:32:28.098Z,35.33
2019-04-07T03:35:17.269Z,36.50
2019-04-07T03:37:53.145Z,35.93
2019-04-07T03:40:24.651Z,39.03
2019-04-07T03:43:09.227Z,37.77
2019-04-07T03:45:55.029Z,38.97
2019-04-07T03:48:30.401Z,37.27
2019-04-07T03:51:15.959Z,35.57
2019-04-07T03:53:47.583Z,37.13
2019-04-07T03:56:19.953Z,36.57
2019-04-07T03:59:03.683Z,38.87
2019-04-07T04:01:35.790Z,36.77
2019-04-07T04:04:23.069Z,38.97
2019-04-07T04:06:54.705Z,38.60
2019-04-07T04:09:42.685Z,38.13
2019-04-07T04:12:26.335Z,37.27
2019-04-07T04:14:57.355Z,36.70
2019-04-07T04:17:23.853Z,36.70
2019-04-07T04:19:50.124Z,38.17
2019-04-07T04:22:16.742Z,38.40
2019-04-07T04:24:43.678Z,39.03
2019-04-07T04:27:10.811Z,37.50
2019-04-07T04:29:37.431Z,37.67
2019-04-07T04:32:03.999Z,36.30
2019-04-07T04:34:30.381Z,38.20
2019-04-07T04:36:58.186Z,37.10
2019-04-07T04:39:26.566Z,39.27
2019-04-07T04:41:52.844Z,38.30
2019-04-07T04:44:19.149Z,38.20
2019-04-07T04:46:45.559Z,36.37
2019-04-07T04:49:11.940Z,38.60
2019-04-07T04:51:39.428Z,34.90
2019-04-07T04:54:07.275Z,37.57
2019-04-07T04:56:33.879Z,36.93
2019-04-07T04:59:00.199Z,38.53
2019-04-07T05:01:26.621Z,37.47
2019-04-07T05:03:53.932Z,35.77
2019-04-07T05:06:21.021Z,37.27
2019-04-07T05:08:47.477Z,37.60
2019-04-07T05:11:13.757Z,37.83
2019-04-07T05:13:40.184Z,35.60
2019-04-07T05:16:07.122Z,36.30
2019-04-07T05:18:33.607Z,38.17
2019-04-07T05:21:00.519Z,35.70
2019-04-07T05:23:27.102Z,38.00
2019-04-07T05:25:54.499Z,36.27
2019-04-07T05:28:21.229Z,37.50
2019-04-07T05:30:48.078Z,35.03
2019-04-07T05:33:15.368Z,37.87
2019-04-07T05:35:44.076Z,36.60
2019-04-07T05:38:11.867Z,35.70
2019-04-07T05:40:38.204Z,36.30
2019-04-07T05:43:04.759Z,35.90
2019-04-07T05:45:31.533Z,36.77
2019-04-07T05:47:57.968Z,35.20
2019-04-07T05:50:26.745Z,35.33
2019-04-07T05:52:53.053Z,35.90
2019-04-07T05:55:21.816Z,35.47
2019-04-07T05:57:47.726Z,36.60
2019-04-07T06:00:16.354Z,37.03
2019-04-07T06:02:44.097Z,36.30
2019-04-07T06:05:11.126Z,36.10
2019-04-07T06:07:37.848Z,35.43
2019-04-07T06:10:08.884Z,35.80
2019-04-07T06:12:39.333Z,35.00
2019-04-07T06:15:05.497Z,37.30
2019-04-07T06:17:31.950Z,35.37
2019-04-07T06:19:58.952Z,34.37
2019-04-07T06:22:26.018Z,35.37
2019-04-07T06:24:52.400Z,34.80
2019-04-07T06:27:18.859Z,36.10
2019-04-07T06:29:45.276Z,37.27
2019-04-07T06:32:11.650Z,35.43
2019-04-07T06:34:41.009Z,36.40
2019-04-07T06:37:06.840Z,35.80
2019-04-07T06:39:33.988Z,35.80
2019-04-07T06:42:01.507Z,37.43
2019-04-07T06:44:29.054Z,35.10
2019-04-07T06:47:12.917Z,36.30
2019-04-07T06:49:59.549Z,35.67
2019-04-07T06:52:44.723Z,35.60
2019-04-07T06:55:33.329Z,35.60
2019-04-07T06:58:02.089Z,36.07
2019-04-07T07:00:36.459Z,36.20
2019-04-07T07:03:21.525Z,37.20
2019-04-07T07:06:06.806Z,35.33
2019-04-07T07:08:55.677Z,35.53
2019-04-07T07:11:31.087Z,34.10
2019-04-07T07:13:58.819Z,33.27
2019-04-07T07:16:30.044Z,33.70
2019-04-07T07:19:15.154Z,34.30
2019-04-07T07:22:00.120Z,34.60
2019-04-07T07:24:27.594Z,35.60
2019-04-07T07:26:56.985Z,34.43
2019-04-07T07:29:26.636Z,33.43
2019-04-07T07:31:58.810Z,34.50
2019-04-07T07:34:24.998Z,34.20
2019-04-07T07:36:53.449Z,33.33
2019-04-07T07:39:22.989Z,32.87
2019-04-07T07:41:51.170Z,33.47
2019-04-07T07:44:17.763Z,35.60
2019-04-07T07:46:44.368Z,34.30
2019-04-07T07:49:11.568Z,33.67
2019-04-07T07:51:39.537Z,32.40
2019-04-07T07:54:06.104Z,32.73
2019-04-07T07:56:41.368Z,31.73
2019-04-07T07:59:01.825Z,31.37
2019-04-07T08:01:28.917Z,31.70
2019-04-07T08:03:55.786Z,30.67
2019-04-07T08:06:25.043Z,31.60
2019-04-07T08:08:53.694Z,30.50
2019-04-07T08:11:30.811Z,29.73
2019-04-07T08:13:55.485Z,29.73
2019-04-07T08:16:23.946Z,28.90
2019-04-07T08:18:50.992Z,30.07
2019-04-07T08:21:19.397Z,29.10
2019-04-07T08:23:45.697Z,27.50
2019-04-07T08:29:06.735Z,27.30
2019-04-07T08:31:32.705Z,27.90
2019-04-07T08:34:04.492Z,27.43
2019-04-07T08:36:31.095Z,27.27
2019-04-07T08:38:58.323Z,27.43
2019-04-07T08:41:25.580Z,27.50
2019-04-07T08:44:01.742Z,28.60
2019-04-07T08:46:39.827Z,26.60
2019-04-07T08:49:07.614Z,28.50
2019-04-07T08:51:30.792Z,29.00
2019-04-07T08:53:59.990Z,28.73
2019-04-07T08:56:26.902Z,29.70
2019-04-07T08:58:54.356Z,27.93
2019-04-07T09:01:22.058Z,27.20
2019-04-07T09:03:48.617Z,27.10
2019-04-07T09:06:15.035Z,28.60
2019-04-07T09:08:42.824Z,26.70
2019-04-07T09:11:11.223Z,27.50
2019-04-07T09:13:38.485Z,27.80
2019-04-07T09:16:14.469Z,29.20
2019-04-07T09:19:01.773Z,27.37
2019-04-07T09:21:37.264Z,29.03
2019-04-07T09:24:12.589Z,26.23
2019-04-07T09:26:44.565Z,25.93
2019-04-07T09:29:16.304Z,27.50
2019-04-07T09:31:44.692Z,27.60
2019-04-07T09:34:20.097Z,27.47
2019-04-07T09:36:48.702Z,27.37
2019-04-07T09:39:25.209Z,29.00
2019-04-07T09:41:55.188Z,26.03
2019-04-07T09:44:23.712Z,27.80
2019-04-07T09:46:53.033Z,26.10
2019-04-07T09:49:30.974Z,25.47
2019-04-07T09:52:05.651Z,25.17
2019-04-07T09:54:34.002Z,26.20
2019-04-07T09:57:19.070Z,24.07
2019-04-07T09:59:50.785Z,24.00
2019-04-07T10:02:26.134Z,23.20
2019-04-07T10:05:11.755Z,23.60
2019-04-07T10:07:42.500Z,22.20
2019-04-07T10:10:22.689Z,25.40
2019-04-07T10:13:00.673Z,23.70
2019-04-07T10:15:32.605Z,20.10
2019-04-07T10:18:07.657Z,17.63
2019-04-07T10:20:36.924Z,16.60
2019-04-07T10:23:11.820Z,15.20
2019-04-07T10:25:43.533Z,16.33
2019-04-07T10:28:19.793Z,16.50
2019-04-07T10:30:51.784Z,15.50
2019-04-07T10:33:35.760Z,15.47
2019-04-07T10:36:07.899Z,15.93
2019-04-07T10:38:48.487Z,14.90
2019-04-07T10:41:22.901Z,16.20
2019-04-07T10:43:51.437Z,14.87
2019-04-07T10:46:20.333Z,15.93
2019-04-07T10:48:57.782Z,15.67
2019-04-07T10:51:42.028Z,15.93
2019-04-07T10:54:19.936Z,15.60
2019-04-07T10:57:04.277Z,15.27
2019-04-07T10:59:34.249Z,13.80
2019-04-07T11:02:05.821Z,14.70
2019-04-07T11:04:35.174Z,14.83
2019-04-07T11:07:07.152Z,14.00
2019-04-07T11:09:52.121Z,14.43
2019-04-07T11:12:26.430Z,14.97
2019-04-07T11:14:57.636Z,14.70
2019-04-07T11:17:38.310Z,14.30
2019-04-07T11:20:08.155Z,14.43
2019-04-07T11:22:54.080Z,14.30
2019-04-07T11:25:35.666Z,14.23
2019-04-07T11:28:07.270Z,14.43
2019-04-07T11:30:49.626Z,13.50
2019-04-07T11:33:20.942Z,15.47
2019-04-07T11:36:06.065Z,14.50
2019-04-07T11:38:44.076Z,14.97
2019-04-07T11:41:27.354Z,14.07
2019-04-07T11:44:00.729Z,14.40
2019-04-07T11:46:46.465Z,14.30
2019-04-07T11:49:15.026Z,14.03
2019-04-07T11:51:55.535Z,14.80
2019-04-07T11:54:27.026Z,15.40
2019-04-07T11:56:58.881Z,15.10
2019-04-07T11:59:30.356Z,15.20
2019-04-07T12:01:59.712Z,15.33
2019-04-07T12:04:34.541Z,14.60
2019-04-07T12:07:21.190Z,14.60
2019-04-07T12:10:06.498Z,14.47
2019-04-07T12:12:51.595Z,13.70
2019-04-07T12:15:25.781Z,13.47
2019-04-07T12:18:08.428Z,14.70
2019-04-07T12:20:42.770Z,14.40
2019-04-07T12:23:23.311Z,14.23
2019-04-07T12:26:08.637Z,14.80
2019-04-07T12:28:49.114Z,14.60
2019-04-07T12:31:16.348Z,14.63
2019-04-07T12:34:01.654Z,15.27
2019-04-07T12:36:33.255Z,14.63
2019-04-07T12:39:01.858Z,13.87
2019-04-07T12:41:36.828Z,14.03
2019-04-07T12:44:06.084Z,15.00
2019-04-07T12:46:46.866Z,13.97
2019-04-07T12:49:21.406Z,13.77
2019-04-07T12:52:07.417Z,14.03
2019-04-07T12:54:52.539Z,13.80
2019-04-07T12:57:24.200Z,13.80
2019-04-07T13:00:01.709Z,13.63
2019-04-07T13:02:36.340Z,13.80
2019-04-07T13:05:08.573Z,13.60
2019-04-07T13:07:51.239Z,13.67
2019-04-07T13:10:19.447Z,13.20
2019-04-07T13:13:04.692Z,12.67
2019-04-07T13:15:33.570Z,12.80
2019-04-07T13:18:12.053Z,12.97
2019-04-07T13:20:50.198Z,12.67
2019-04-07T13:23:17.657Z,12.93
2019-04-07T13:25:54.311Z,12.30
2019-04-07T13:28:25.956Z,12.30
2019-04-07T13:31:03.698Z,13.90
2019-04-07T13:33:38.151Z,12.90
2019-04-07T13:36:10.387Z,13.60
2019-04-07T13:38:51.231Z,13.90
2019-04-07T13:41:20.328Z,13.53
2019-04-07T13:43:54.855Z,14.50
2019-04-07T13:46:30.578Z,13.00
2019-04-07T13:48:58.855Z,13.03
2019-04-07T13:51:26.877Z,13.20
2019-04-07T13:54:08.018Z,12.80
2019-04-07T13:56:40.990Z,12.50
2019-04-07T13:59:15.820Z,12.00
2019-04-07T14:01:52.428Z,12.87
2019-04-07T14:04:35.964Z,13.17
2019-04-07T14:07:04.912Z,13.70
2019-04-07T14:09:39.158Z,13.20
2019-04-07T14:12:24.878Z,12.27
2019-04-07T14:15:03.987Z,13.50
2019-04-07T14:17:32.485Z,13.80
2019-04-07T14:20:00.891Z,13.30
2019-04-07T14:22:46.641Z,14.10
2019-04-07T14:25:30.012Z,13.87
2019-04-07T14:28:02.525Z,14.50
2019-04-07T14:30:33.746Z,13.03
2019-04-07T14:33:04.819Z,13.60
2019-04-07T14:35:39.183Z,13.07
2019-04-07T14:38:15.783Z,14.00
2019-04-07T14:40:44.596Z,13.50
2019-04-07T14:43:29.908Z,11.70
2019-04-07T14:46:01.266Z,13.70
2019-04-07T14:48:41.595Z,13.80
2019-04-07T14:51:21.643Z,14.33
2019-04-07T14:53:49.838Z,14.10
2019-04-07T14:56:36.420Z,14.00
2019-04-07T14:59:23.945Z,14.13
2019-04-07T15:01:59.360Z,14.33
2019-04-07T15:04:26.705Z,14.00
2019-04-07T15:06:55.951Z,13.90
2019-04-07T15:09:27.133Z,13.97
2019-04-07T15:12:05.223Z,14.43
2019-04-07T15:14:31.384Z,14.50
2019-04-07T15:16:58.110Z,14.70
2019-04-07T15:19:24.560Z,13.83
2019-04-07T15:21:53.100Z,14.33
2019-04-07T15:24:19.896Z,14.33
2019-04-07T15:26:49.547Z,14.80
2019-04-07T15:29:14.684Z,14.97
2019-04-07T15:31:42.564Z,13.70
2019-04-07T15:34:11.742Z,14.17
2019-04-07T15:36:37.537Z,14.40
2019-04-07T15:39:07.067Z,13.20
2019-04-07T15:41:33.330Z,14.57
2019-04-07T15:44:00.390Z,14.77
2019-04-07T15:46:26.836Z,13.33
2019-04-07T15:48:55.599Z,14.00
2019-04-07T15:51:21.612Z,14.33
2019-04-07T15:53:51.511Z,12.93
2019-04-07T15:56:18.345Z,13.43
2019-04-07T15:58:44.027Z,13.63
2019-04-07T16:01:10.784Z,12.80
2019-04-07T16:03:38.810Z,13.40
2019-04-07T16:06:05.746Z,13.90
2019-04-07T16:08:32.071Z,13.40
2019-04-07T16:10:58.360Z,13.47
2019-04-07T16:13:24.968Z,15.83
2019-04-07T16:15:53.903Z,13.33
2019-04-07T16:18:20.064Z,13.10
2019-04-07T16:20:46.948Z,12.30
2019-04-07T16:23:17.491Z,12.80
2019-04-07T16:25:41.884Z,13.40
2019-04-07T16:28:12.793Z,13.50
2019-04-07T16:30:36.702Z,12.77
2019-04-07T16:33:05.238Z,14.57
2019-04-07T16:35:31.092Z,13.00
2019-04-07T16:37:58.312Z,13.80
2019-04-07T16:40:25.391Z,14.33
2019-04-07T16:43:04.804Z,13.80
2019-04-07T16:45:19.811Z,13.03
2019-04-07T16:47:46.066Z,15.17
2019-04-07T16:50:13.307Z,14.20
2019-04-07T16:52:39.827Z,16.13
2019-04-07T16:55:13.728Z,16.87
2019-04-07T16:57:38.725Z,17.10
2019-04-07T17:00:13.390Z,18.40
2019-04-07T17:02:39.833Z,18.30
2019-04-07T17:05:06.752Z,17.60
2019-04-07T17:07:33.945Z,19.67
2019-04-07T17:10:02.413Z,20.03
2019-04-07T17:12:29.109Z,18.37
2019-04-07T17:14:55.352Z,17.90
2019-04-07T17:17:22.986Z,17.90
2019-04-07T17:19:49.335Z,17.17
2019-04-07T17:22:16.923Z,16.60
2019-04-07T17:24:45.259Z,17.27
2019-04-07T17:27:11.927Z,17.73
2019-04-07T17:29:38.403Z,17.30
2019-04-07T17:32:06.106Z,17.00
2019-04-07T17:34:32.622Z,16.80
2019-04-07T17:36:58.870Z,16.90
2019-04-07T17:39:39.110Z,17.23
2019-04-07T17:42:10.476Z,15.83
2019-04-07T17:44:41.436Z,16.90
2019-04-07T17:47:29.380Z,17.13
2019-04-07T17:50:04.265Z,18.10
2019-04-07T17:52:32.479Z,17.50
2019-04-07T17:55:15.414Z,17.40
2019-04-07T17:58:03.113Z,16.97
2019-04-07T18:00:41.416Z,17.60
2019-04-07T18:03:22.128Z,17.40
2019-04-07T18:06:03.712Z,18.77
2019-04-07T18:08:43.534Z,19.37
2019-04-07T18:11:28.877Z,20.37
2019-04-07T18:14:12.622Z,16.97
2019-04-07T18:16:41.785Z,16.40
2019-04-07T18:19:13.108Z,15.70
2019-04-07T18:21:53.898Z,17.70
2019-04-07T18:24:26.068Z,17.27
2019-04-07T18:26:55.231Z,16.90
2019-04-07T18:29:30.998Z,17.00
2019-04-07T18:32:16.591Z,17.00
2019-04-07T18:35:02.516Z,18.40
2019-04-07T18:37:36.474Z,18.67
2019-04-07T18:40:14.730Z,19.13
2019-04-07T18:42:43.369Z,18.17
2019-04-07T18:45:16.185Z,18.70
2019-04-07T18:47:48.272Z,18.20
2019-04-07T18:50:36.989Z,17.47
2019-04-07T18:53:07.182Z,17.03
2019-04-07T18:55:39.356Z,18.03
2019-04-07T18:58:20.885Z,17.53
2019-04-07T19:01:03.141Z,17.27
2019-04-07T19:03:40.644Z,18.30
2019-04-07T19:06:09.156Z,17.63
2019-04-07T19:08:58.879Z,18.07
2019-04-07T19:11:28.269Z,17.43
2019-04-07T19:14:30.825Z,17.20
2019-04-07T19:16:50.804Z,18.40
2019-04-07T19:19:26.594Z,18.77
2019-04-07T19:22:15.336Z,18.00
2019-04-07T19:24:44.611Z,15.93
2019-04-07T19:27:22.327Z,17.20
2019-04-07T19:30:03.934Z,16.87
2019-04-07T19:32:52.664Z,18.00
2019-04-07T19:35:39.823Z,16.40
2019-04-07T19:38:08.060Z,16.77
2019-04-07T19:40:53.211Z,16.50
2019-04-07T19:43:22.123Z,16.20
2019-04-07T19:45:57.037Z,16.23
2019-04-07T19:48:25.494Z,15.37
2019-04-07T19:51:10.237Z,15.87
2019-04-07T19:53:38.706Z,15.63
2019-04-07T19:56:23.102Z,15.07
2019-04-07T19:58:51.552Z,16.50
2019-04-07T20:01:20.680Z,16.70
2019-04-07T20:03:52.093Z,14.90
2019-04-07T20:06:24.852Z,15.53
2019-04-07T20:09:00.009Z,15.03
2019-04-07T20:11:31.716Z,15.80
2019-04-07T20:14:10.649Z,15.70
2019-04-07T20:16:53.504Z,14.47
2019-04-07T20:19:41.145Z,15.23
2019-04-07T20:22:09.076Z,15.20
2019-04-07T20:24:47.240Z,15.40
2019-04-07T20:27:13.966Z,15.53
2019-04-07T20:29:45.916Z,14.63
2019-04-07T20:32:25.307Z,14.03
2019-04-07T20:35:01.144Z,15.00
2019-04-07T20:37:35.492Z,14.33
2019-04-07T20:40:06.637Z,15.37
2019-04-07T20:42:35.226Z,14.70
2019-04-07T20:45:07.107Z,14.20
2019-04-07T20:47:34.591Z,14.07
2019-04-07T20:50:05.574Z,14.00
2019-04-07T20:52:40.473Z,14.57
2019-04-07T20:55:15.696Z,14.20
2019-04-07T20:57:56.461Z,14.10
2019-04-07T21:00:29.044Z,14.60
2019-04-07T21:03:14.462Z,15.40
2019-04-07T21:05:29.258Z,14.30
2019-04-07T21:08:12.683Z,13.63
2019-04-07T21:10:56.098Z,14.13
2019-04-07T21:13:27.281Z,14.27
2019-04-07T21:16:23.678Z,15.30
2019-04-07T21:19:06.782Z,14.73
2019-04-07T21:21:46.251Z,14.40
2019-04-07T21:24:19.617Z,15.53
2019-04-07T21:26:48.024Z,14.73
2019-04-07T21:29:17.948Z,15.87
2019-04-07T21:32:03.515Z,16.73
2019-04-07T21:37:18.188Z,15.77
2019-04-07T21:40:02.898Z,16.83
2019-04-07T21:42:45.804Z,16.67
2019-04-07T21:45:31.601Z,16.60
2019-04-07T21:47:59.045Z,15.93
2019-04-07T21:50:30.194Z,16.77
2019-04-07T21:53:07.060Z,17.23
2019-04-07T21:55:43.069Z,16.13
2019-04-07T21:58:17.342Z,17.80
2019-04-07T22:00:58.257Z,16.70
2019-04-07T22:03:31.025Z,17.20
2019-04-07T22:06:16.501Z,17.23
2019-04-07T22:08:46.519Z,17.10
2019-04-07T22:11:13.007Z,17.97
2019-04-07T22:13:39.359Z,18.00
2019-04-07T22:16:05.889Z,17.33
2019-04-07T22:18:32.461Z,17.13
2019-04-07T22:20:59.199Z,17.30
2019-04-07T22:23:29.485Z,17.53
2019-04-07T22:25:54.060Z,17.00
2019-04-07T22:28:20.827Z,18.07
2019-04-07T22:30:48.772Z,17.30
2019-04-07T22:33:15.836Z,17.80
2019-04-07T22:35:44.078Z,18.50
2019-04-07T22:38:11.436Z,17.90
2019-04-07T22:40:39.255Z,18.23
2019-04-07T22:43:07.210Z,17.77
2019-04-07T22:45:33.872Z,17.37
2019-04-07T22:48:01.312Z,18.13
2019-04-07T22:50:28.430Z,18.70
2019-04-07T22:52:55.375Z,19.03
2019-04-07T22:55:22.824Z,19.90
2019-04-07T22:57:49.510Z,18.40
2019-04-07T23:00:19.190Z,19.00
2019-04-07T23:02:46.515Z,19.43
2019-04-07T23:05:19.282Z,19.93
2019-04-07T23:07:45.903Z,18.97
2019-04-07T23:10:13.678Z,19.60
2019-04-07T23:12:40.851Z,20.70
2019-04-07T23:15:07.653Z,19.43
2019-04-07T23:17:35.236Z,19.90
2019-04-07T23:20:09.124Z,20.70
2019-04-07T23:22:36.181Z,18.80
2019-04-07T23:25:04.115Z,20.23
2019-04-07T23:27:30.396Z,19.00
2019-04-07T23:29:56.970Z,20.17
2019-04-07T23:32:24.088Z,21.40
2019-04-07T23:34:50.511Z,20.07
2019-04-07T23:37:19.483Z,19.10
2019-04-07T23:39:46.101Z,21.10
2019-04-07T23:42:12.641Z,20.90
2019-04-07T23:44:39.427Z,20.30
2019-04-07T23:47:06.827Z,20.37
2019-04-07T23:49:34.203Z,19.13
2019-04-07T23:52:00.696Z,20.17
2019-04-07T23:54:27.118Z,21.20
2019-04-07T23:56:54.093Z,20.20
2019-04-07T23:59:22.807Z,20.37
